Anatife — FGE8389 — position and weather

sailwx.info

Track history (hours):
 
Tides and Currents Weather Stations Pressure Air Temp Water Temp Dewpoint Dewpoint Depression Visibility Wind Speed Wind Dir Waves Ship Positions

Anatife

Last reported at 2016-Sep-15 12:33 UTC. Time now 2016-Sep-25 22:38 UTC.
Position N 47°44' W 003°22'.
Warning: this ship's position is 10 days out of date.

Length 41 m; draft 2 m.

Type: Tanker. MMSI: 227681520.

Date/timePositionNaut miles runAvg speedWind from/ knotsBaromVisibWave heightAir tempDewpointWater temp
2016-Sep-15 12:33N 47°44' W 003°22'1 0.7
2016-Sep-15 11:33N 47°44' W 003°21'0 0.0
2016-Sep-15 04:33N 47°44' W 003°21'0 0.0
2016-Sep-15 03:33N 47°44' W 003°21'0 0.0
2016-Sep-15 01:33N 47°44' W 003°21'0 0.0
2016-Sep-14 22:34N 47°44' W 003°21'0 0.0
2016-Sep-14 21:33N 47°44' W 003°21'0 0.0
2016-Sep-14 17:32N 47°44' W 003°21'0 0.0
2016-Sep-14 16:33N 47°44' W 003°21'0 0.0
2016-Sep-14 13:33N 47°44' W 003°21'0 0.0
2016-Sep-14 12:33N 47°44' W 003°21'0 0.0
2016-Sep-14 10:33N 47°44' W 003°21'0 0.0
2016-Sep-14 09:33N 47°44' W 003°21'0 0.0
2016-Sep-14 08:33N 47°44' W 003°21'0 0.0
2016-Sep-14 07:33N 47°44' W 003°21'0 0.0
2016-Sep-14 06:33N 47°44' W 003°21'0 0.0
2016-Sep-14 03:34N 47°44' W 003°21'0 0.0
2016-Sep-13 22:33N 47°44' W 003°21'0 0.0
2016-Sep-13 20:33N 47°44' W 003°21'0 0.0
2016-Sep-13 18:33N 47°44' W 003°21'0 0.0
2016-Sep-13 17:33N 47°44' W 003°21'0 0.0
2016-Sep-13 16:33N 47°44' W 003°21'0 0.0
2016-Sep-13 11:33N 47°44' W 003°21'0 0.0
2016-Sep-13 09:33N 47°44' W 003°21'0 0.0
2016-Sep-13 07:33N 47°44' W 003°21'0 0.0
2016-Sep-13 06:33N 47°44' W 003°21'0 0.0
2016-Sep-13 04:33N 47°44' W 003°21'0 0.0
2016-Sep-13 02:33N 47°44' W 003°21'0 0.0
2016-Sep-12 23:33N 47°44' W 003°21'0 0.0
2016-Sep-12 21:33N 47°44' W 003°21'0 0.0
2016-Sep-12 19:33N 47°44' W 003°21'0 0.0
2016-Sep-12 17:34N 47°44' W 003°21'1 0.2
2016-Sep-12 14:33N 47°44' W 003°22'0 0.0
2016-Sep-12 12:27N 47°44' W 003°22'0 0.3
2016-Sep-12 11:33N 47°44' W 003°22'1 0.8
2016-Sep-12 10:32N 47°44' W 003°21'0 0.0
2016-Sep-12 07:33N 47°44' W 003°21'0 0.0
2016-Sep-12 06:33N 47°44' W 003°21'0 0.0
2016-Sep-12 03:33N 47°44' W 003°21'0 0.0
2016-Sep-12 01:33N 47°44' W 003°21'0 0.0
2016-Sep-11 23:33N 47°44' W 003°21'0 0.0
2016-Sep-11 22:33N 47°44' W 003°21'0 0.0
2016-Sep-11 21:33N 47°44' W 003°21'0 0.0
2016-Sep-11 20:33N 47°44' W 003°21'0 0.0
2016-Sep-11 19:33N 47°44' W 003°21'0 0.0
2016-Sep-11 18:33N 47°44' W 003°21'0 0.0
2016-Sep-11 17:33N 47°44' W 003°21'0 0.0
2016-Sep-11 16:33N 47°44' W 003°21'0 0.0
2016-Sep-11 15:33N 47°44' W 003°21'0 0.0
2016-Sep-11 14:33N 47°44' W 003°21'0 0.0
2016-Sep-11 13:33N 47°44' W 003°21'4 4.0
2016-Sep-11 12:33N 47°41' W 003°24'9 8.7
2016-Sep-11 11:33N 47°34' W 003°17'9 9.0
2016-Sep-11 10:33N 47°27' W 003°09'18 8.7
2016-Sep-11 08:33N 47°16' W 002°48'9 8.8
2016-Sep-11 07:33N 47°14' W 002°35'21 0.5
2016-Sep-09 17:09N 47°18' W 002°05'0 0.0
2016-Sep-09 16:33N 47°18' W 002°05'0 0.0
2016-Sep-09 15:33N 47°18' W 002°05'0 0.0
2016-Sep-09 14:33N 47°18' W 002°05'0 0.0
2016-Sep-09 13:33N 47°18' W 002°05'0 0.0
2016-Sep-09 12:12N 47°18' W 002°05'0 0.0
2016-Sep-09 11:30N 47°18' W 002°05'0 0.0
2016-Sep-09 10:33N 47°18' W 002°05'0 0.0
2016-Sep-09 09:29N 47°18' W 002°05'0 0.0
2016-Sep-09 08:31N 47°18' W 002°05'0 0.0
2016-Sep-09 07:33N 47°18' W 002°05'0 0.0
2016-Sep-09 06:33N 47°18' W 002°05'0 0.0
2016-Sep-09 05:33N 47°18' W 002°05'0 0.0
2016-Sep-09 04:33N 47°18' W 002°05'0 0.0
2016-Sep-09 03:33N 47°18' W 002°05'0 0.0
2016-Sep-09 02:33N 47°18' W 002°05'0 0.0
2016-Sep-09 01:34N 47°18' W 002°05'0 0.0
2016-Sep-09 00:33N 47°18' W 002°05'1 0.8
2016-Sep-08 23:33N 47°18' W 002°06'8 8.2
2016-Sep-08 22:33N 47°14' W 002°16'9 8.6
2016-Sep-08 21:33N 47°14' W 002°29'10 9.9
2016-Sep-08 20:32N 47°15' W 002°43'9 9.2
2016-Sep-08 19:33N 47°18' W 002°56'9 9.5
2016-Sep-08 18:34N 47°21' W 003°09'0 0.3
2016-Sep-08 17:33N 47°21' W 003°09'0 0.0
2016-Sep-08 16:33N 47°21' W 003°09'0 0.0
2016-Sep-08 14:33N 47°21' W 003°09'0 0.0
2016-Sep-08 13:30N 47°21' W 003°09'0 0.0
2016-Sep-08 12:33N 47°21' W 003°09'3 0.5
2016-Sep-08 07:09N 47°20' W 003°05'4 7.4
2016-Sep-08 06:33N 47°19' W 002°59'7 6.9
2016-Sep-08 05:33N 47°17' W 002°50'7 6.4
2016-Sep-08 04:26N 47°15' W 002°39'5 6.1
2016-Sep-08 03:33N 47°14' W 002°32'19 4.5
2016-Sep-07 23:24N 47°18' W 002°05'0 0.0
2016-Sep-07 22:27N 47°18' W 002°05'0 0.0
2016-Sep-07 21:33N 47°18' W 002°05'0 0.0
2016-Sep-07 20:33N 47°18' W 002°05'0 0.0
2016-Sep-07 19:33N 47°18' W 002°05'0 0.0
2016-Sep-07 18:34N 47°18' W 002°05'0 0.0
2016-Sep-07 17:33N 47°18' W 002°05'0 0.0
2016-Sep-07 16:32N 47°18' W 002°05'0 0.0
2016-Sep-07 15:33N 47°18' W 002°05'0 0.0
2016-Sep-07 14:33N 47°18' W 002°05'  
Track history (hours):
 
Tides and Currents Weather Stations Pressure Air Temp Water Temp Dewpoint Dewpoint Depression Visibility Wind Speed Wind Dir Waves Ship Positions

Anatife

Last reported at 2016-Sep-15 12:33 UTC. Time now 2016-Sep-25 22:38 UTC.
Position N 47°44' W 003°22'.
Warning: this ship's position is 10 days out of date.

Length 41 m; draft 2 m.

Type: Tanker. MMSI: 227681520.

Date/timePositionNaut miles runAvg speedWind from/ knotsBaromVisibWave heightAir tempDewpointWater temp
2016-Sep-15 12:33N 47°44' W 003°22'1 0.7
2016-Sep-15 11:33N 47°44' W 003°21'0 0.0
2016-Sep-15 04:33N 47°44' W 003°21'0 0.0
2016-Sep-15 03:33N 47°44' W 003°21'0 0.0
2016-Sep-15 01:33N 47°44' W 003°21'0 0.0
2016-Sep-14 22:34N 47°44' W 003°21'0 0.0
2016-Sep-14 21:33N 47°44' W 003°21'0 0.0
2016-Sep-14 17:32N 47°44' W 003°21'0 0.0
2016-Sep-14 16:33N 47°44' W 003°21'0 0.0
2016-Sep-14 13:33N 47°44' W 003°21'0 0.0
2016-Sep-14 12:33N 47°44' W 003°21'0 0.0
2016-Sep-14 10:33N 47°44' W 003°21'0 0.0
2016-Sep-14 09:33N 47°44' W 003°21'0 0.0
2016-Sep-14 08:33N 47°44' W 003°21'0 0.0
2016-Sep-14 07:33N 47°44' W 003°21'0 0.0
2016-Sep-14 06:33N 47°44' W 003°21'0 0.0
2016-Sep-14 03:34N 47°44' W 003°21'0 0.0
2016-Sep-13 22:33N 47°44' W 003°21'0 0.0
2016-Sep-13 20:33N 47°44' W 003°21'0 0.0
2016-Sep-13 18:33N 47°44' W 003°21'0 0.0
2016-Sep-13 17:33N 47°44' W 003°21'0 0.0
2016-Sep-13 16:33N 47°44' W 003°21'0 0.0
2016-Sep-13 11:33N 47°44' W 003°21'0 0.0
2016-Sep-13 09:33N 47°44' W 003°21'0 0.0
2016-Sep-13 07:33N 47°44' W 003°21'0 0.0
2016-Sep-13 06:33N 47°44' W 003°21'0 0.0
2016-Sep-13 04:33N 47°44' W 003°21'0 0.0
2016-Sep-13 02:33N 47°44' W 003°21'0 0.0
2016-Sep-12 23:33N 47°44' W 003°21'0 0.0
2016-Sep-12 21:33N 47°44' W 003°21'0 0.0
2016-Sep-12 19:33N 47°44' W 003°21'0 0.0
2016-Sep-12 17:34N 47°44' W 003°21'1 0.2
2016-Sep-12 14:33N 47°44' W 003°22'0 0.0
2016-Sep-12 12:27N 47°44' W 003°22'0 0.3
2016-Sep-12 11:33N 47°44' W 003°22'1 0.8
2016-Sep-12 10:32N 47°44' W 003°21'0 0.0
2016-Sep-12 07:33N 47°44' W 003°21'0 0.0
2016-Sep-12 06:33N 47°44' W 003°21'0 0.0
2016-Sep-12 03:33N 47°44' W 003°21'0 0.0
2016-Sep-12 01:33N 47°44' W 003°21'0 0.0
2016-Sep-11 23:33N 47°44' W 003°21'0 0.0
2016-Sep-11 22:33N 47°44' W 003°21'0 0.0
2016-Sep-11 21:33N 47°44' W 003°21'0 0.0
2016-Sep-11 20:33N 47°44' W 003°21'0 0.0
2016-Sep-11 19:33N 47°44' W 003°21'0 0.0
2016-Sep-11 18:33N 47°44' W 003°21'0 0.0
2016-Sep-11 17:33N 47°44' W 003°21'0 0.0
2016-Sep-11 16:33N 47°44' W 003°21'0 0.0
2016-Sep-11 15:33N 47°44' W 003°21'0 0.0
2016-Sep-11 14:33N 47°44' W 003°21'0 0.0
2016-Sep-11 13:33N 47°44' W 003°21'4 4.0
2016-Sep-11 12:33N 47°41' W 003°24'9 8.7
2016-Sep-11 11:33N 47°34' W 003°17'9 9.0
2016-Sep-11 10:33N 47°27' W 003°09'18 8.7
2016-Sep-11 08:33N 47°16' W 002°48'9 8.8
2016-Sep-11 07:33N 47°14' W 002°35'21 0.5
2016-Sep-09 17:09N 47°18' W 002°05'0 0.0
2016-Sep-09 16:33N 47°18' W 002°05'0 0.0
2016-Sep-09 15:33N 47°18' W 002°05'0 0.0
2016-Sep-09 14:33N 47°18' W 002°05'0 0.0
2016-Sep-09 13:33N 47°18' W 002°05'0 0.0
2016-Sep-09 12:12N 47°18' W 002°05'0 0.0
2016-Sep-09 11:30N 47°18' W 002°05'0 0.0
2016-Sep-09 10:33N 47°18' W 002°05'0 0.0
2016-Sep-09 09:29N 47°18' W 002°05'0 0.0
2016-Sep-09 08:31N 47°18' W 002°05'0 0.0
2016-Sep-09 07:33N 47°18' W 002°05'0 0.0
2016-Sep-09 06:33N 47°18' W 002°05'0 0.0
2016-Sep-09 05:33N 47°18' W 002°05'0 0.0
2016-Sep-09 04:33N 47°18' W 002°05'0 0.0
2016-Sep-09 03:33N 47°18' W 002°05'0 0.0
2016-Sep-09 02:33N 47°18' W 002°05'0 0.0
2016-Sep-09 01:34N 47°18' W 002°05'0 0.0
2016-Sep-09 00:33N 47°18' W 002°05'1 0.8
2016-Sep-08 23:33N 47°18' W 002°06'8 8.2
2016-Sep-08 22:33N 47°14' W 002°16'9 8.6
2016-Sep-08 21:33N 47°14' W 002°29'10 9.9
2016-Sep-08 20:32N 47°15' W 002°43'9 9.2
2016-Sep-08 19:33N 47°18' W 002°56'9 9.5
2016-Sep-08 18:34N 47°21' W 003°09'0 0.3
2016-Sep-08 17:33N 47°21' W 003°09'0 0.0
2016-Sep-08 16:33N 47°21' W 003°09'0 0.0
2016-Sep-08 14:33N 47°21' W 003°09'0 0.0
2016-Sep-08 13:30N 47°21' W 003°09'0 0.0
2016-Sep-08 12:33N 47°21' W 003°09'3 0.5
2016-Sep-08 07:09N 47°20' W 003°05'4 7.4
2016-Sep-08 06:33N 47°19' W 002°59'7 6.9
2016-Sep-08 05:33N 47°17' W 002°50'7 6.4
2016-Sep-08 04:26N 47°15' W 002°39'5 6.1
2016-Sep-08 03:33N 47°14' W 002°32'19 4.5
2016-Sep-07 23:24N 47°18' W 002°05'0 0.0
2016-Sep-07 22:27N 47°18' W 002°05'0 0.0
2016-Sep-07 21:33N 47°18' W 002°05'0 0.0
2016-Sep-07 20:33N 47°18' W 002°05'0 0.0
2016-Sep-07 19:33N 47°18' W 002°05'0 0.0
2016-Sep-07 18:34N 47°18' W 002°05'0 0.0
2016-Sep-07 17:33N 47°18' W 002°05'0 0.0
2016-Sep-07 16:32N 47°18' W 002°05'0 0.0
2016-Sep-07 15:33N 47°18' W 002°05'0 0.0
2016-Sep-07 14:33N 47°18' W 002°05'  

Dump ship's entire track history